Time;durP1;ratioP1;P1;durP2;ratioP2;P2;SDS_P1;SDS_P2;PMS_P1;PMS_P2;Temp;Humidity;BMP_temperature;BMP_pressure;BME280_temperature;BME280_humidity;BME280_pressure;Samples;Min_cycle;Max_cycle;Signal;HPM_P1;HPM_P2
2023/05/29 00:01:18;;;;;;;12.00;7.80;;;;;;;19.05;78.92;99312.77;79391;1301;3011438;-62
2023/05/29 00:03:47;;;;;;;10.30;7.10;;;;;;;18.79;79.40;99314.06;78185;1299;3052684;-62
2023/05/29 00:06:13;;;;;;;5.80;3.80;;;;;;;18.53;80.14;99313.67;79511;1294;3013463;-62
2023/05/29 00:08:40;;;;;;;6.20;4.20;;;;;;;18.87;78.35;99314.70;79411;1294;3013511;-63
2023/05/29 00:11:08;;;;;;;8.00;4.70;;;;;;;19.27;76.02;99318.04;78043;1294;3025914;-62
2023/05/29 00:13:37;;;;;;;6.60;4.70;;;;;;;19.38;75.48;99321.39;79319;1297;3013569;-63
2023/05/29 00:16:07;;;;;;;9.80;5.10;;;;;;;19.21;74.91;99323.06;78768;1294;3011743;-63
2023/05/29 00:18:34;;;;;;;5.40;4.70;;;;;;;18.92;74.35;99320.09;79284;1297;3013315;-62
2023/05/29 00:21:02;;;;;;;7.40;4.30;;;;;;;18.60;73.98;99314.20;79367;1294;3011640;-61
2023/05/29 00:23:30;;;;;;;10.80;4.10;;;;;;;18.40;73.90;99314.20;78347;1295;3068455;-62
2023/05/29 00:25:57;;;;;;;7.20;4.30;;;;;;;18.08;73.81;99309.64;79253;1294;3013479;-64
2023/05/29 00:28:24;;;;;;;5.00;3.50;;;;;;;18.00;73.51;99310.52;79246;1295;3011958;-64
2023/05/29 00:30:52;;;;;;;7.50;3.70;;;;;;;17.84;72.54;99311.25;78035;1300;3054000;-62
2023/05/29 00:33:20;;;;;;;6.20;3.70;;;;;;;17.75;72.10;99310.54;79377;1297;3013791;-61
2023/05/29 00:35:47;;;;;;;6.40;3.40;;;;;;;17.57;70.42;99308.79;79336;1294;3011629;-65
2023/05/29 00:38:15;;;;;;;8.00;3.20;;;;;;;17.42;69.71;99313.08;78288;1298;3069078;-62
2023/05/29 00:40:42;;;;;;;5.40;3.00;;;;;;;17.29;69.54;99313.48;77334;1300;5915608;-66
2023/05/29 00:43:08;;;;;;;7.10;3.20;;;;;;;17.23;69.59;99324.87;79288;1300;3013614;-61
2023/05/29 00:45:37;;;;;;;13.00;3.80;;;;;;;17.05;69.52;99322.57;78176;1295;3028016;-63
2023/05/29 00:48:04;;;;;;;6.80;3.00;;;;;;;16.96;69.87;99323.59;79363;1299;3013168;-65
2023/05/29 00:50:32;;;;;;;5.80;2.90;;;;;;;16.94;69.70;99328.13;79439;1296;3011641;-63
2023/05/29 00:53:01;;;;;;;7.50;3.10;;;;;;;16.85;69.37;99325.40;78059;1299;3070426;-65
2023/05/29 00:55:29;;;;;;;5.40;2.80;;;;;;;16.82;69.07;99320.14;79628;1295;3011856;-65
2023/05/29 00:57:58;;;;;;;7.70;2.70;;;;;;;16.71;69.38;99321.85;78985;1294;3011649;-66
2023/05/29 01:00:25;;;;;;;4.90;3.20;;;;;;;16.72;69.80;99322.80;79202;1294;3013044;-62
2023/05/29 01:02:52;;;;;;;6.80;2.80;;;;;;;16.66;69.95;99321.95;79481;1295;3011205;-62
2023/05/29 01:05:21;;;;;;;7.80;2.80;;;;;;;16.64;69.97;99323.89;78042;1297;3027571;-62
2023/05/29 01:07:49;;;;;;;3.80;2.80;;;;;;;16.56;70.29;99323.98;79437;1300;3013225;-66
2023/05/29 01:10:18;;;;;;;9.90;2.90;;;;;;;16.56;70.71;99324.21;78812;1295;3013324;-66
2023/05/29 01:13:01;;;;;;;2.40;1.60;;;;;;;16.52;70.55;99322.30;79222;1294;3018700;-64
2023/05/29 01:15:43;;;;;;;6.50;2.00;;;;;;;17.14;68.95;99323.98;77969;1297;3051030;-64
2023/05/29 01:18:30;;;;;;;2.60;1.90;;;;;;;17.66;67.36;99326.98;77994;1295;3053508;-68
2023/05/29 01:21:42;;;;;;;4.10;1.90;;;;;;;17.59;66.06;99328.63;78060;1300;3049062;-62
2023/05/29 01:24:18;;;;;;;9.00;2.40;;;;;;;17.46;66.71;99328.73;77998;1300;3053151;-62
2023/05/29 01:26:48;;;;;;;4.80;2.40;;;;;;;17.30;66.87;99327.05;78158;1296;3052599;-61
2023/05/29 01:29:19;;;;;;;8.20;2.70;;;;;;;17.17;67.35;99328.95;79530;1295;3012907;-66
2023/05/29 01:31:47;;;;;;;9.80;2.70;;;;;;;16.96;67.52;99328.82;78008;1299;3052501;-61
2023/05/29 01:34:16;;;;;;;6.50;2.50;;;;;;;16.82;67.90;99328.48;79324;1294;3013157;-60
2023/05/29 01:36:48;;;;;;;4.60;2.50;;;;;;;16.70;68.15;99326.02;78982;1294;3013025;-69
2023/05/29 01:39:15;;;;;;;8.10;2.80;;;;;;;16.61;68.44;99331.70;79359;1299;3011922;-65
2023/05/29 01:41:44;;;;;;;7.00;2.90;;;;;;;16.50;68.87;99332.15;78802;1299;3011827;-64
2023/05/29 01:44:12;;;;;;;6.70;2.80;;;;;;;16.42;69.03;99335.13;79332;1300;3013593;-62
2023/05/29 01:46:40;;;;;;;5.00;2.10;;;;;;;16.35;69.45;99330.44;79212;1294;3011491;-64
2023/05/29 01:49:08;;;;;;;6.40;2.40;;;;;;;16.36;69.12;99331.27;78120;1295;3051706;-64
2023/05/29 01:51:35;;;;;;;8.90;2.60;;;;;;;16.29;69.10;99331.84;79335;1294;3013684;-60
2023/05/29 01:54:02;;;;;;;3.10;2.40;;;;;;;16.21;69.12;99327.77;79300;1294;3011560;-60
2023/05/29 01:56:30;;;;;;;5.20;2.50;;;;;;;16.14;69.17;99335.98;78153;1300;3050169;-63
2023/05/29 01:58:57;;;;;;;4.20;2.50;;;;;;;16.02;69.74;99339.27;79365;1300;3018317;-60
2023/05/29 02:01:24;;;;;;;5.30;2.20;;;;;;;16.05;69.80;99341.30;79428;1297;3011586;-62
2023/05/29 02:03:52;;;;;;;5.00;2.60;;;;;;;16.02;69.63;99339.44;78027;1296;3026109;-62
2023/05/29 02:06:19;;;;;;;4.90;2.00;;;;;;;16.00;69.62;99336.41;79400;1297;3020669;-66
2023/05/29 02:08:46;;;;;;;5.00;2.20;;;;;;;16.00;69.50;99332.03;79259;1295;3011582;-64
2023/05/29 02:11:14;;;;;;;8.40;2.20;;;;;;;16.01;69.43;99326.15;78242;1300;3029092;-68
2023/05/29 02:13:41;;;;;;;3.10;1.90;;;;;;;16.00;69.26;99322.89;79347;1299;3013221;-61
2023/05/29 02:16:09;;;;;;;8.10;2.40;;;;;;;15.92;69.12;99317.52;79210;1295;3013752;-64
2023/05/29 02:18:36;;;;;;;3.80;2.20;;;;;;;15.88;68.94;99323.02;78102;1294;3051954;-65
2023/05/29 02:21:03;;;;;;;5.40;2.70;;;;;;;15.84;68.92;99333.26;79345;1296;3019085;-60
2023/05/29 02:23:30;;;;;;;3.90;2.20;;;;;;;15.79;69.06;99334.83;79362;1299;3011611;-64
2023/05/29 02:25:58;;;;;;;4.40;2.10;;;;;;;15.85;69.12;99340.03;78051;1300;3028823;-65
2023/05/29 02:28:26;;;;;;;3.00;1.80;;;;;;;15.84;68.79;99338.20;79373;1297;3014675;-63
2023/05/29 02:30:52;;;;;;;4.30;2.20;;;;;;;15.86;68.75;99338.14;79427;1295;3011665;-68
2023/05/29 02:33:20;;;;;;;4.70;2.10;;;;;;;15.87;68.55;99338.77;78020;1296;3052106;-62
2023/05/29 02:35:47;;;;;;;4.10;1.90;;;;;;;15.82;68.62;99341.33;79306;1295;3013752;-62
2023/05/29 02:38:14;;;;;;;4.60;2.10;;;;;;;15.82;68.74;99344.14;79350;1299;3011943;-63
2023/05/29 02:40:43;;;;;;;3.70;2.00;;;;;;;15.82;68.48;99344.84;78136;1299;3049451;-63
2023/05/29 02:43:12;;;;;;;3.80;2.10;;;;;;;15.77;68.46;99343.14;79340;1299;3013362;-64
2023/05/29 02:45:41;;;;;;;4.00;2.00;;;;;;;15.76;68.63;99344.60;78694;1300;3013462;-62
2023/05/29 02:48:07;;;;;;;9.50;2.10;;;;;;;15.70;68.40;99346.35;79410;1298;3021119;-61
2023/05/29 02:50:35;;;;;;;6.40;2.00;;;;;;;15.74;68.23;99346.71;79258;1300;3011872;-66
2023/05/29 02:53:03;;;;;;;3.90;2.20;;;;;;;15.70;68.40;99351.30;78043;1297;3025877;-61
2023/05/29 02:55:32;;;;;;;4.60;2.00;;;;;;;15.74;68.01;99350.04;79327;1295;3013501;-64
2023/05/29 02:57:59;;;;;;;4.90;2.00;;;;;;;15.71;67.92;99352.46;79305;1299;3011676;-62
2023/05/29 03:00:28;;;;;;;4.40;1.70;;;;;;;15.68;68.29;99352.39;78016;1300;3054434;-61
2023/05/29 03:02:58;;;;;;;8.00;2.10;;;;;;;15.66;68.08;99354.83;79133;1300;3011736;-66
2023/05/29 03:05:26;;;;;;;4.10;2.10;;;;;;;15.69;67.99;99353.70;78041;1299;3025633;-65
2023/05/29 03:07:53;;;;;;;5.20;2.30;;;;;;;15.68;67.83;99355.04;79424;1297;3012522;-63
2023/05/29 03:10:20;;;;;;;4.10;2.00;;;;;;;15.68;67.76;99359.08;79284;1300;3013327;-67
2023/05/29 03:12:48;;;;;;;5.60;2.30;;;;;;;15.67;67.52;99359.27;77996;1294;3025258;-62
2023/05/29 03:15:15;;;;;;;4.60;1.90;;;;;;;15.73;67.64;99360.58;79295;1300;3013417;-66
2023/05/29 03:17:41;;;;;;;5.00;2.20;;;;;;;15.76;67.64;99367.35;79219;1295;3011535;-62
2023/05/29 03:20:13;;;;;;;5.30;2.20;;;;;;;15.71;67.30;99362.86;78173;1300;3052388;-62
2023/05/29 03:22:40;;;;;;;3.60;1.90;;;;;;;15.75;67.58;99360.63;79400;1295;3013993;-66
2023/05/29 03:25:07;;;;;;;6.00;2.00;;;;;;;15.76;67.49;99358.05;79282;1299;3011789;-66
2023/05/29 03:27:35;;;;;;;3.80;1.90;;;;;;;15.78;67.39;99357.31;78099;1297;3048590;-65
2023/05/29 03:30:09;;;;;;;3.00;1.80;;;;;;;15.74;67.48;99359.42;79329;1294;3011967;-62
2023/05/29 03:32:39;;;;;;;4.60;1.80;;;;;;;15.71;67.39;99353.30;77972;1300;3052434;-66
2023/05/29 03:35:06;;;;;;;4.20;1.60;;;;;;;15.72;67.56;99356.04;79398;1294;3014449;-64
2023/05/29 03:37:33;;;;;;;4.20;2.00;;;;;;;15.72;67.40;99351.60;79398;1294;3013686;-60
2023/05/29 03:40:01;;;;;;;3.40;2.00;;;;;;;15.74;67.35;99356.80;78042;1299;3049623;-65
2023/05/29 03:42:30;;;;;;;3.70;1.80;;;;;;;15.78;67.25;99359.64;79286;1299;3013670;-66
2023/05/29 03:44:59;;;;;;;4.00;1.80;;;;;;;15.83;67.11;99357.27;78860;1299;3011779;-63
2023/05/29 03:47:26;;;;;;;4.50;1.80;;;;;;;15.85;67.11;99360.19;79302;1300;3013750;-67
2023/05/29 03:49:53;;;;;;;4.70;2.00;;;;;;;15.93;67.11;99368.98;79198;1295;3013172;-63
2023/05/29 03:52:21;;;;;;;5.80;2.10;;;;;;;15.96;66.66;99362.39;78128;1297;3027935;-61
2023/05/29 03:54:48;;;;;;;11.10;2.10;;;;;;;15.97;66.71;99360.88;79220;1295;3012905;-61
2023/05/29 03:57:14;;;;;;;4.90;2.00;;;;;;;16.01;66.41;99353.02;79212;1300;3011686;-63
2023/05/29 03:59:42;;;;;;;7.20;2.20;;;;;;;16.06;66.37;99347.61;78053;1299;3027939;-63
2023/05/29 04:02:09;;;;;;;3.50;1.80;;;;;;;16.09;66.20;99353.85;79067;1300;3013155;-64
2023/05/29 04:04:36;;;;;;;4.40;2.00;;;;;;;16.15;65.68;99355.15;79173;1295;3013067;-60
2023/05/29 04:07:05;;;;;;;5.60;2.60;;;;;;;16.14;65.47;99350.10;78019;1300;3051497;-60
2023/05/29 04:09:31;;;;;;;5.20;2.00;;;;;;;16.17;65.56;99351.65;79389;1294;3013430;-62
2023/05/29 04:12:03;;;;;;;4.50;2.10;;;;;;;16.25;65.74;99353.42;78781;1295;3012773;-62
2023/05/29 04:14:29;;;;;;;5.20;1.70;;;;;;;16.28;64.98;99354.88;79458;1295;3011798;-63
2023/05/29 04:16:56;;;;;;;4.40;1.60;;;;;;;16.32;65.07;99360.37;79293;1294;3013306;-61
2023/05/29 04:19:25;;;;;;;5.00;1.80;;;;;;;16.34;64.40;99360.96;78087;1300;3051795;-67
2023/05/29 04:21:51;;;;;;;4.50;2.00;;;;;;;16.36;64.71;99364.86;79336;1300;3018827;-59
2023/05/29 04:24:18;;;;;;;3.70;2.00;;;;;;;16.38;64.86;99365.34;79321;1294;3013253;-61
2023/05/29 04:26:46;;;;;;;2.70;1.70;;;;;;;16.42;64.91;99361.77;78010;1299;3028618;-63
2023/05/29 04:29:13;;;;;;;6.20;2.30;;;;;;;16.41;64.49;99363.48;79259;1295;3015756;-62
2023/05/29 04:31:40;;;;;;;3.60;1.70;;;;;;;16.45;64.74;99360.90;79215;1295;3013657;-61
2023/05/29 04:34:08;;;;;;;3.40;2.00;;;;;;;16.44;64.55;99365.91;78160;1300;3052600;-64
2023/05/29 04:36:37;;;;;;;9.20;1.90;;;;;;;16.44;64.22;99368.58;79329;1297;3013098;-60
2023/05/29 04:39:09;;;;;;;5.00;1.90;;;;;;;16.43;64.33;99370.89;77981;1294;3058207;-62
2023/05/29 04:41:37;;;;;;;7.20;2.00;;;;;;;16.47;64.23;99380.52;79482;1295;3014695;-61
2023/05/29 04:44:09;;;;;;;2.90;1.60;;;;;;;16.51;64.13;99382.83;78804;1295;3012996;-63
2023/05/29 04:46:44;;;;;;;5.70;2.40;;;;;;;16.52;63.85;99385.96;78255;1299;3050400;-62
2023/05/29 04:49:12;;;;;;;3.00;1.80;;;;;;;16.52;63.98;99378.13;79390;1297;3013976;-62
2023/05/29 04:51:41;;;;;;;4.30;2.00;;;;;;;16.55;64.16;99378.21;78709;1295;3011826;-62
2023/05/29 04:54:09;;;;;;;3.70;2.00;;;;;;;16.52;63.85;99381.33;79337;1297;3013446;-65
2023/05/29 04:56:36;;;;;;;5.40;2.10;;;;;;;16.49;64.08;99376.82;79257;1295;3012176;-61
2023/05/29 04:59:05;;;;;;;5.80;2.10;;;;;;;16.53;64.03;99383.65;78295;1298;3049573;-64
2023/05/29 05:01:33;;;;;;;3.70;1.80;;;;;;;16.58;64.22;99382.71;79345;1296;3013572;-65
2023/05/29 05:04:03;;;;;;;3.80;1.80;;;;;;;16.68;64.12;99383.29;78933;1294;3011649;-63
2023/05/29 05:06:30;;;;;;;9.40;1.90;;;;;;;16.72;63.75;99382.95;79339;1300;3014236;-65
2023/05/29 05:08:58;;;;;;;4.30;2.20;;;;;;;16.73;63.78;99381.41;79398;1294;3011903;-66
2023/05/29 05:11:26;;;;;;;3.20;1.90;;;;;;;16.79;63.33;99379.80;78074;1300;3051848;-64
2023/05/29 05:13:53;;;;;;;4.50;2.10;;;;;;;16.84;63.53;99379.40;79287;1295;3013814;-66
2023/05/29 05:16:20;;;;;;;3.40;2.00;;;;;;;16.88;63.67;99381.69;79519;1294;3011494;-61
2023/05/29 05:18:48;;;;;;;3.20;2.10;;;;;;;16.89;63.45;99382.55;78148;1300;3050121;-66
2023/05/29 05:21:15;;;;;;;5.70;2.20;;;;;;;16.92;63.81;99385.59;79319;1297;3013683;-66
2023/05/29 05:23:42;;;;;;;4.70;2.20;;;;;;;16.96;63.63;99390.98;79311;1295;3011638;-64
2023/05/29 05:26:11;;;;;;;4.20;1.80;;;;;;;16.99;63.93;99387.32;78115;1300;3052514;-66
2023/05/29 05:28:38;;;;;;;4.80;1.90;;;;;;;17.05;63.69;99387.85;79240;1300;3012918;-68
2023/05/29 05:31:06;;;;;;;4.80;2.10;;;;;;;17.13;63.67;99388.05;79248;1294;3013736;-65
2023/05/29 05:33:34;;;;;;;8.10;2.30;;;;;;;17.17;63.54;99385.17;78293;1298;3049902;-63
2023/05/29 05:36:01;;;;;;;5.60;2.30;;;;;;;17.23;63.86;99389.27;79488;1300;3013553;-63
2023/05/29 05:38:28;;;;;;;5.10;2.00;;;;;;;17.30;63.63;99391.26;79548;1295;3011641;-64
2023/05/29 05:40:56;;;;;;;3.20;1.60;;;;;;;17.36;63.53;99387.44;78253;1300;3051513;-64
2023/05/29 05:43:28;;;;;;;3.20;2.00;;;;;;;17.36;63.25;99386.66;79294;1294;3013180;-62
2023/05/29 05:46:06;;;;;;;4.90;2.30;;;;;;;17.36;63.45;99385.10;78161;1297;3049791;-62
2023/05/29 05:48:36;;;;;;;5.00;2.30;;;;;;;17.39;63.40;99386.99;79396;1300;3012675;-62
2023/05/29 05:51:05;;;;;;;2.90;2.10;;;;;;;17.39;63.39;99389.03;78188;1297;3028647;-63
2023/05/29 05:53:32;;;;;;;4.60;1.70;;;;;;;17.53;63.68;99383.23;79806;1294;3014283;-65
2023/05/29 05:55:58;;;;;;;8.00;2.30;;;;;;;17.60;62.91;99388.21;79532;1295;3011607;-59
2023/05/29 05:58:26;;;;;;;6.50;2.50;;;;;;;17.65;62.81;99388.33;78328;1294;3051547;-61
2023/05/29 06:00:53;;;;;;;4.00;2.00;;;;;;;17.73;63.12;99390.25;79475;1295;3014083;-64
2023/05/29 06:03:21;;;;;;;7.90;2.30;;;;;;;17.79;62.43;99383.45;79663;1294;3011951;-62
2023/05/29 06:05:59;;;;;;;3.10;2.00;;;;;;;17.88;62.47;99384.32;78380;1297;3050325;-61
2023/05/29 06:08:26;;;;;;;8.80;2.70;;;;;;;17.98;61.78;99387.29;79437;1299;3012998;-66
2023/05/29 06:10:53;;;;;;;7.10;2.10;;;;;;;18.11;61.97;99386.82;79700;1298;3011925;-69
2023/05/29 06:13:20;;;;;;;5.40;2.20;;;;;;;18.19;61.52;99389.95;78149;1294;3025664;-67
2023/05/29 06:15:56;;;;;;;3.60;2.00;;;;;;;18.25;61.36;99384.20;78774;1294;3013208;-66
2023/05/29 06:18:23;;;;;;;4.80;2.60;;;;;;;18.38;61.03;99385.36;79379;1297;3013754;-68
2023/05/29 06:20:50;;;;;;;9.80;2.80;;;;;;;18.49;61.01;99387.45;79408;1300;3011601;-66
2023/05/29 06:23:18;;;;;;;2.90;1.80;;;;;;;18.67;60.89;99386.79;78165;1300;3050010;-66
2023/05/29 06:25:45;;;;;;;3.40;2.10;;;;;;;18.78;60.08;99388.60;79403;1294;3013911;-70
2023/05/29 06:28:12;;;;;;;5.00;2.20;;;;;;;18.85;59.97;99386.73;79382;1295;3011715;-67
2023/05/29 06:30:40;;;;;;;4.70;2.00;;;;;;;19.01;60.03;99388.02;78199;1294;3050688;-65
2023/05/29 06:33:07;;;;;;;3.90;2.00;;;;;;;19.23;59.25;99380.25;79480;1294;3014904;-64
2023/05/29 06:35:35;;;;;;;3.40;2.20;;;;;;;19.38;59.00;99377.52;79370;1294;3011625;-70
2023/05/29 06:38:03;;;;;;;4.90;2.10;;;;;;;19.49;58.44;99378.23;78203;1299;3049297;-64
2023/05/29 06:40:30;;;;;;;4.00;1.90;;;;;;;19.65;58.15;99377.88;79273;1300;3013262;-66
2023/05/29 06:42:57;;;;;;;2.90;2.10;;;;;;;19.74;58.06;99374.08;79300;1299;3011849;-65
2023/05/29 06:45:38;;;;;;;4.50;2.50;;;;;;;19.74;57.28;99375.04;78278;1300;3051701;-64
2023/05/29 06:48:05;;;;;;;6.30;2.30;;;;;;;19.78;57.48;99377.08;79396;1296;3012874;-70
2023/05/29 06:50:33;;;;;;;5.80;2.20;;;;;;;19.83;57.28;99376.09;79486;1294;3012643;-66
2023/05/29 06:53:08;;;;;;;5.80;2.20;;;;;;;19.93;56.82;99372.92;78261;1299;3050687;-62
2023/05/29 06:55:45;;;;;;;9.60;2.60;;;;;;;19.95;56.96;99370.10;78082;1300;3052729;-69
2023/05/29 06:58:12;;;;;;;6.00;2.30;;;;;;;20.07;56.80;99367.67;79241;1297;3013866;-66
2023/05/29 07:00:39;;;;;;;5.20;2.50;;;;;;;20.15;56.79;99373.22;79376;1295;3011746;-63
2023/05/29 07:03:40;;;;;;;7.90;2.40;;;;;;;20.36;56.42;99375.55;78202;1299;3057281;-64
2023/05/29 07:06:07;;;;;;;9.20;2.60;;;;;;;20.54;55.78;99380.39;79413;1294;3013241;-64
2023/05/29 07:08:33;;;;;;;6.10;2.40;;;;;;;20.62;55.60;99377.10;79290;1294;3012892;-67
2023/05/29 07:11:02;;;;;;;3.50;2.30;;;;;;;20.74;55.63;99378.95;77985;1298;3028328;-68
2023/05/29 07:13:29;;;;;;;4.90;2.50;;;;;;;20.79;55.14;99376.60;79369;1299;3013461;-70
2023/05/29 07:15:55;;;;;;;6.50;2.60;;;;;;;20.87;54.97;99371.55;79192;1294;3011766;-68
2023/05/29 07:18:28;;;;;;;5.10;2.70;;;;;;;20.92;54.91;99364.42;78148;1295;3058174;-67
2023/05/29 07:20:59;;;;;;;3.70;2.40;;;;;;;20.99;55.17;99364.27;79198;1296;3011527;-63
2023/05/29 07:23:29;;;;;;;6.50;2.30;;;;;;;21.05;54.73;99363.79;78233;1294;3050340;-65
2023/05/29 07:25:56;;;;;;;3.80;2.20;;;;;;;21.09;54.16;99363.87;79430;1294;3013060;-68
2023/05/29 07:28:27;;;;;;;8.60;2.60;;;;;;;21.18;54.82;99371.49;79031;1300;3013550;-71
2023/05/29 07:30:53;;;;;;;6.70;2.70;;;;;;;21.24;54.80;99372.77;79515;1300;3013203;-67
2023/05/29 07:33:20;;;;;;;3.70;2.20;;;;;;;21.24;54.94;99368.87;79246;1300;3011959;-71
2023/05/29 07:35:48;;;;;;;4.70;2.70;;;;;;;21.33;54.80;99369.68;78227;1299;3028445;-67
2023/05/29 07:38:15;;;;;;;3.80;2.50;;;;;;;21.43;54.14;99373.07;79550;1299;3012746;-66
2023/05/29 07:40:42;;;;;;;5.70;2.10;;;;;;;21.50;53.93;99374.45;79315;1295;3011729;-66
2023/05/29 07:43:10;;;;;;;5.50;2.30;;;;;;;21.57;53.92;99376.38;78321;1300;3028026;-72
2023/05/29 07:45:47;;;;;;;3.90;2.00;;;;;;;21.70;53.83;99377.48;78217;1301;3069673;-72
2023/05/29 07:48:14;;;;;;;5.70;2.30;;;;;;;21.81;53.46;99370.98;79411;1297;3013701;-73
2023/05/29 07:50:41;;;;;;;4.70;2.60;;;;;;;21.74;52.95;99373.45;79424;1294;3014082;-67
2023/05/29 07:53:09;;;;;;;6.20;2.20;;;;;;;21.80;53.65;99369.98;78015;1295;3053105;-66
2023/05/29 07:55:38;;;;;;;5.90;2.70;;;;;;;21.89;53.39;99367.79;79464;1299;3013156;-69
2023/05/29 07:58:04;;;;;;;6.00;2.60;;;;;;;21.92;53.59;99363.86;79477;1299;3011617;-68
2023/05/29 08:00:33;;;;;;;5.40;2.10;;;;;;;22.07;53.13;99364.95;78058;1297;3068879;-61
2023/05/29 08:03:02;;;;;;;4.90;2.30;;;;;;;22.19;51.49;99365.57;79449;1295;3013475;-65
2023/05/29 08:05:33;;;;;;;4.90;2.10;;;;;;;22.25;51.37;99360.09;78280;1299;3056998;-63
2023/05/29 08:08:03;;;;;;;4.30;2.10;;;;;;;22.29;51.18;99356.34;79578;1295;3011965;-68
2023/05/29 08:10:31;;;;;;;3.20;2.20;;;;;;;22.33;51.22;99351.31;78298;1294;3026750;-66
2023/05/29 08:12:58;;;;;;;4.40;2.30;;;;;;;22.43;50.94;99353.62;79469;1294;3019417;-65
2023/05/29 08:15:26;;;;;;;4.70;2.10;;;;;;;22.48;51.10;99353.93;79566;1298;3011798;-64
2023/05/29 08:17:54;;;;;;;3.00;1.90;;;;;;;22.57;49.96;99355.80;78153;1299;3071167;-61
2023/05/29 08:20:20;;;;;;;3.30;2.20;;;;;;;22.62;50.12;99349.19;79611;1298;3013492;-62
2023/05/29 08:22:47;;;;;;;4.50;2.20;;;;;;;22.73;50.14;99347.23;79565;1298;3011828;-64
2023/05/29 08:25:15;;;;;;;3.50;2.00;;;;;;;22.88;49.79;99344.41;78353;1295;3027796;-65
2023/05/29 08:27:42;;;;;;;9.80;2.40;;;;;;;22.96;49.41;99352.81;79638;1294;3013260;-65
2023/05/29 08:30:09;;;;;;;5.70;2.10;;;;;;;23.03;49.17;99355.91;79344;1300;3013029;-64
2023/05/29 08:32:38;;;;;;;3.90;2.00;;;;;;;23.13;48.23;99354.22;78079;1298;3068466;-65
2023/05/29 08:35:05;;;;;;;5.50;2.20;;;;;;;23.20;47.72;99356.20;79552;1300;3012903;-66
2023/05/29 08:37:33;;;;;;;13.10;2.30;;;;;;;23.21;47.53;99350.04;79354;1295;3011339;-65
2023/05/29 08:40:07;;;;;;;4.30;2.00;;;;;;;23.22;47.53;99356.25;78171;1295;3052742;-65
2023/05/29 08:42:43;;;;;;;3.40;1.90;;;;;;;23.31;47.58;99357.60;78908;1298;3011860;-67
2023/05/29 08:45:10;;;;;;;7.70;2.30;;;;;;;23.39;47.90;99359.20;79300;1295;3011353;-65
2023/05/29 08:47:39;;;;;;;3.30;2.00;;;;;;;23.55;48.01;99362.17;78190;1300;3052495;-62
2023/05/29 08:50:07;;;;;;;7.00;2.20;;;;;;;23.66;47.88;99354.91;79309;1297;3013455;-63
2023/05/29 08:52:36;;;;;;;5.40;2.10;;;;;;;23.60;47.65;99360.63;78966;1295;3011689;-63
2023/05/29 08:55:04;;;;;;;6.30;2.30;;;;;;;23.57;47.46;99359.25;79283;1294;3013632;-64
2023/05/29 08:57:31;;;;;;;7.10;2.90;;;;;;;23.63;47.46;99355.55;79255;1295;3012202;-66
2023/05/29 09:00:00;;;;;;;7.50;2.30;;;;;;;23.77;46.97;99333.87;78101;1298;3052608;-64
2023/05/29 09:02:27;;;;;;;3.20;1.60;;;;;;;23.71;47.37;99339.11;79396;1294;3013199;-63
2023/05/29 09:04:54;;;;;;;5.90;2.40;;;;;;;23.91;46.97;99334.30;79507;1300;3011562;-64
2023/05/29 09:07:22;;;;;;;6.50;2.10;;;;;;;24.05;46.60;99335.36;78115;1295;3068005;-62
2023/05/29 09:09:50;;;;;;;3.30;2.40;;;;;;;24.20;46.55;99332.61;79456;1295;3021205;-62
2023/05/29 09:12:16;;;;;;;3.60;2.30;;;;;;;24.26;46.39;99320.84;79396;1299;3011548;-66
2023/05/29 09:14:45;;;;;;;3.00;2.10;;;;;;;24.43;46.38;99320.11;78254;1294;3028960;-64
2023/05/29 09:17:12;;;;;;;3.80;2.60;;;;;;;24.69;45.88;99317.82;79373;1297;3013241;-68
2023/05/29 09:19:40;;;;;;;6.90;2.80;;;;;;;24.77;45.87;99319.02;79464;1299;3013014;-64
2023/05/29 09:22:16;;;;;;;4.30;2.40;;;;;;;24.95;45.71;99320.38;78448;1299;3070400;-66
2023/05/29 09:24:48;;;;;;;4.50;2.20;;;;;;;25.13;45.16;99319.46;78156;1298;3050780;-65
2023/05/29 09:27:15;;;;;;;6.60;2.40;;;;;;;25.23;45.28;99314.46;79419;1298;3011989;-64
2023/05/29 09:29:44;;;;;;;4.20;2.40;;;;;;;25.37;43.83;99315.19;78029;1294;3027085;-63
2023/05/29 09:32:16;;;;;;;4.10;2.10;;;;;;;25.65;42.62;99315.31;79843;1294;3016007;-66
2023/05/29 09:34:44;;;;;;;4.50;2.30;;;;;;;25.80;41.96;99314.17;78215;1300;3052633;-66
2023/05/29 09:37:11;;;;;;;4.50;2.30;;;;;;;25.78;41.61;99308.08;79582;1299;3018324;-68
2023/05/29 09:39:41;;;;;;;4.40;2.60;;;;;;;25.86;41.09;99310.61;79458;1295;3011885;-65
2023/05/29 09:42:09;;;;;;;5.50;2.60;;;;;;;25.98;40.47;99306.85;78217;1300;3057709;-65
2023/05/29 09:44:36;;;;;;;5.50;2.20;;;;;;;26.04;39.71;99301.02;79483;1294;3012951;-64
2023/05/29 09:47:03;;;;;;;6.50;2.80;;;;;;;26.05;39.63;99296.30;79373;1294;3011668;-63
2023/05/29 09:49:32;;;;;;;6.00;2.30;;;;;;;25.96;39.89;99299.06;78324;1299;3052777;-62
2023/05/29 09:51:59;;;;;;;4.70;2.30;;;;;;;26.20;39.85;99299.51;79587;1294;3011553;-66
2023/05/29 09:54:29;;;;;;;4.20;2.00;;;;;;;26.16;39.90;99295.20;79428;1299;3012980;-61
2023/05/29 09:56:57;;;;;;;4.20;2.10;;;;;;;26.08;40.46;99294.42;78251;1300;3056550;-64
2023/05/29 09:59:24;;;;;;;4.90;2.30;;;;;;;26.14;40.24;99292.73;79341;1294;3018822;-66
2023/05/29 10:02:11;;;;;;;3.30;2.30;;;;;;;26.37;39.55;99289.60;79386;1299;3011606;-67
2023/05/29 10:04:40;;;;;;;4.50;2.70;;;;;;;26.42;38.87;99292.61;78185;1294;3052750;-65
2023/05/29 10:07:12;;;;;;;3.90;2.10;;;;;;;26.36;39.33;99293.66;79370;1299;3013189;-64
2023/05/29 10:09:43;;;;;;;2.90;2.20;;;;;;;26.46;39.15;99293.63;78217;1294;3052390;-63
2023/05/29 10:12:11;;;;;;;6.90;2.50;;;;;;;26.32;38.92;99292.41;79506;1294;3011674;-62
2023/05/29 10:14:40;;;;;;;3.40;2.20;;;;;;;26.13;39.34;99294.16;78363;1298;3026432;-62
2023/05/29 10:17:07;;;;;;;8.50;2.40;;;;;;;25.90;39.87;99291.81;79299;1295;3013252;-66
2023/05/29 10:19:36;;;;;;;4.40;2.60;;;;;;;25.69;40.11;99298.45;79439;1298;3011758;-68
2023/05/29 10:22:05;;;;;;;6.40;2.50;;;;;;;25.75;40.30;99297.05;78355;1295;3052468;-66
2023/05/29 10:24:32;;;;;;;5.50;2.30;;;;;;;25.79;40.33;99293.64;79539;1295;3015889;-64
2023/05/29 10:26:59;;;;;;;3.70;2.30;;;;;;;25.86;39.53;99288.80;79351;1294;3011873;-63
2023/05/29 10:29:43;;;;;;;4.10;2.30;;;;;;;25.76;39.88;99286.25;78211;1299;3049086;-64
2023/05/29 10:32:17;;;;;;;7.70;2.80;;;;;;;25.78;40.29;99289.29;78150;1298;3052996;-68
2023/05/29 10:34:56;;;;;;;5.40;2.00;;;;;;;25.78;40.38;99284.82;79240;1298;3011644;-67
2023/05/29 10:37:39;;;;;;;5.40;2.50;;;;;;;25.92;39.96;99284.45;78269;1300;3053353;-66
2023/05/29 10:40:12;;;;;;;6.20;2.70;;;;;;;26.22;39.90;99280.42;78121;1300;3054525;-65
2023/05/29 10:42:47;;;;;;;7.00;2.40;;;;;;;26.30;39.59;99284.31;79335;1300;3013353;-75
2023/05/29 10:45:29;;;;;;;5.40;3.00;;;;;;;26.18;39.82;99287.36;78199;1294;3052102;-65
2023/05/29 10:48:06;;;;;;;4.20;2.60;;;;;;;25.91;40.42;99287.91;78278;1300;3057345;-66
2023/05/29 10:50:38;;;;;;;2.70;2.10;;;;;;;25.88;40.71;99287.58;78039;1300;3049512;-64
2023/05/29 10:53:14;;;;;;;7.50;2.20;;;;;;;25.93;41.05;99294.68;79445;1297;3013327;-67
2023/05/29 10:55:43;;;;;;;4.90;2.10;;;;;;;25.88;41.50;99294.11;78098;1300;3050268;-66
2023/05/29 10:58:15;;;;;;;4.60;2.50;;;;;;;25.74;41.85;99292.08;79279;1297;3013275;-65
2023/05/29 11:00:43;;;;;;;6.60;2.30;;;;;;;25.56;42.30;99282.34;77960;1297;3068024;-64
2023/05/29 11:03:10;;;;;;;4.90;2.40;;;;;;;25.34;42.79;99289.71;79143;1295;3013447;-67
2023/05/29 11:06:20;;;;;;;4.30;2.00;;;;;;;25.25;43.45;99283.84;79278;1295;3013170;-67
2023/05/29 11:08:53;;;;;;;3.80;2.20;;;;;;;25.42;43.14;99284.41;77965;1300;3054622;-64
2023/05/29 11:11:40;;;;;;;4.70;2.20;;;;;;;25.58;43.25;99275.04;79249;1300;3011753;-63
2023/05/29 11:14:08;;;;;;;2.90;2.10;;;;;;;25.56;43.11;99274.45;78105;1300;3054107;-62
2023/05/29 11:16:37;;;;;;;4.00;2.70;;;;;;;25.96;42.08;99274.09;79284;1299;3014219;-67
2023/05/29 11:19:09;;;;;;;2.80;2.40;;;;;;;26.23;41.70;99271.86;79305;1298;3011622;-63
2023/05/29 11:21:46;;;;;;;4.80;2.40;;;;;;;26.47;41.44;99270.96;77995;1295;3056569;-66
2023/05/29 11:24:25;;;;;;;3.90;2.20;;;;;;;26.70;41.07;99266.98;78117;1300;3049069;-68
2023/05/29 11:26:55;;;;;;;4.10;2.20;;;;;;;26.77;41.34;99261.21;78263;1296;3054147;-65